Date,TemperatureHighF,TemperatureAvgF,TemperatureLowF,DewpointHighF,DewpointAvgF,DewpointLowF,HumidityHigh,HumidityAvg,HumidityLow,PressureMaxIn,PressureMinIn,WindSpeedMaxMPH,WindSpeedAvgMPH,GustSpeedMaxMPH,PrecipitationSumIn
2012-1-1,59,43,29,46,34,23,89,72,46,29.94,29.69,15,2,15,0.00
2012-1-2,42,34,22,24,16,6,63,46,38,29.88,29.76,19,6,20,0.00
2012-1-3,34,24,18,9,7,5,60,49,39,30.09,29.87,16,5,16,0.00
2012-1-4,46,27,14,19,12,6,75,54,31,30.11,29.83,8,1,8,0.00
2012-1-5,57,42,30,30,23,14,66,49,34,29.92,29.80,11,2,11,0.00
2012-1-6,70,46,29,36,26,20,72,49,24,29.88,29.76,10,2,10,0.00
2012-1-7,66,49,33,46,36,23,73,60,45,29.88,29.74,11,1,12,0.00
2012-1-8,56,48,41,43,37,33,85,67,50,30.06,29.88,7,1,7,0.00
2012-1-9,46,43,41,41,39,37,90,86,72,30.04,29.86,5,0,6,0.12
2012-1-10,57,45,37,44,40,34,91,82,52,29.91,29.78,6,0,7,0.00
2012-1-11,44,43,40,41,40,38,91,90,85,29.79,29.34,19,3,19,1.16
2012-1-12,55,44,34,48,39,24,92,84,61,29.46,29.28,15,3,15,0.03
2012-1-13,39,30,23,24,17,13,68,58,44,29.86,29.40,19,5,19,0.00
2012-1-14,45,31,20,25,18,13,76,60,38,29.97,29.85,12,2,12,0.00
2012-1-15,50,36,28,27,23,18,81,60,37,30.30,29.89,13,2,13,0.00
2012-1-16,45,34,22,30,24,16,82,68,55,30.32,30.10,11,2,11,0.00
2012-1-17,62,46,34,50,39,28,90,77,64,30.10,29.69,18,3,18,0.18
2012-1-18,52,40,29,49,27,19,91,61,45,29.92,29.68,17,4,17,0.09
2012-1-19,44,32,22,26,22,16,80,65,46,30.00,29.84,9,2,9,0.00
2012-1-20,53,39,26,39,31,21,90,73,54,29.94,29.84,5,0,6,0.34
2012-1-21,47,43,39,45,40,36,91,90,87,29.94,29.64,9,0,9,0.21
2012-1-22,45,36,33,42,32,30,90,86,78,30.14,29.93,10,2,10,0.00
2012-1-23,39,36,34,36,33,31,91,90,90,30.08,29.81,6,0,6,0.55
2012-1-24,66,46,36,49,36,29,91,72,31,30.06,29.81,9,1,9,0.03
2012-1-25,62,44,30,38,32,26,87,66,39,30.13,29.99,8,1,8,0.00
2012-1-26,58,49,38,55,43,34,91,80,64,30.00,29.50,12,0,12,0.18
2012-1-27,60,53,36,57,44,30,91,72,49,29.84,29.40,17,5,17,0.21
2012-1-28,59,40,28,39,30,17,88,68,45,30.04,29.82,12,2,12,0.00
2012-1-29,53,40,28,20,16,10,61,39,19,30.14,30.00,17,4,17,0.00
2012-1-30,62,45,34,28,22,16,52,39,27,30.20,30.04,14,3,14,0.00
2012-1-31,69,47,28,38,28,20,75,50,31,30.15,30.02,14,3,14,0.00
2012-2-1,66,50,41,48,38,27,90,65,45,30.04,29.86,12,1,12,0.34
2012-2-2,64,52,44,48,39,29,90,64,32,30.13,29.80,13,3,14,0.00
2012-2-3,61,43,28,35,29,24,85,59,35,30.28,30.13,7,0,7,0.00
2012-2-4,49,43,37,44,37,27,90,79,61,30.15,29.84,7,0,7,0.15
2012-2-5,48,43,39,42,40,36,91,88,80,30.03,29.77,10,1,10,0.21
2012-2-6,52,41,36,39,34,31,88,77,59,30.08,29.92,7,1,7,0.00
2012-2-7,61,42,28,34,28,22,84,60,28,29.99,29.91,7,1,7,0.00
2012-2-8,50,38,30,40,29,22,86,71,55,30.01,29.91,10,2,10,0.09
2012-2-9,53,40,33,31,26,24,73,59,41,30.09,29.96,10,2,10,0.00
2012-2-10,44,35,25,36,29,22,86,79,66,29.98,29.69,6,0,6,0.00
2012-2-11,42,32,20,33,19,2,86,59,35,29.92,29.58,18,6,18,0.00
2012-2-12,41,27,16,16,9,2,58,47,34,30.04,29.91,14,4,14,0.00
2012-2-13,50,35,21,22,16,10,64,47,30,30.07,29.88,9,1,9,0.00
2012-2-14,52,42,36,37,29,19,81,61,45,29.89,29.78,13,2,13,0.00
2012-2-15,67,45,28,38,32,25,89,64,33,30.07,29.89,5,0,6,0.00
2012-2-16,54,47,40,49,40,30,90,77,52,30.05,29.82,6,0,6,0.31
2012-2-17,67,50,40,43,35,27,90,58,28,29.94,29.84,12,2,12,0.00
2012-2-18,62,49,37,38,32,26,75,54,36,29.94,29.76,10,1,10,0.00
2012-2-19,51,38,31,37,32,28,90,81,53,29.77,29.59,21,2,21,0.34
2012-2-20,54,35,25,36,28,22,90,76,45,30.11,29.76,6,0,6,0.43
2012-2-21,58,38,23,40,30,20,88,73,49,30.10,29.76,18,3,18,0.00
2012-2-22,66,45,31,45,38,28,89,77,42,29.77,29.38,18,2,18,0.37
2012-2-23,73,53,38,56,46,35,90,77,54,29.50,29.38,15,2,15,1.32
2012-2-24,72,58,40,60,46,21,89,66,38,29.73,29.27,62,6,62,0.24
2012-2-25,53,39,32,22,19,16,54,43,32,30.11,29.72,18,6,18,0.00
2012-2-26,59,38,26,29,21,15,70,51,30,30.26,30.10,11,1,12,0.00
2012-2-27,64,43,28,42,31,20,79,65,43,30.23,30.09,8,1,8,0.00
2012-2-28,72,51,33,40,34,28,88,58,23,30.22,30.06,9,0,9,0.00
2012-2-29,66,56,51,56,49,34,88,75,51,30.06,29.60,15,3,15,0.12
2012-3-1,76,62,50,55,39,25,90,50,17,29.70,29.59,17,4,17,0.06
2012-3-2,54,47,43,43,37,26,90,70,39,29.79,29.51,12,1,12,0.00
2012-3-3,64,51,46,47,36,22,90,61,26,29.61,29.38,10,2,10,0.49
2012-3-4,53,41,30,25,22,17,74,48,31,29.79,29.51,60,4,60,0.00
2012-3-5,48,34,27,27,21,16,85,60,33,30.26,29.68,17,4,17,0.03
2012-3-6,59,38,22,31,22,15,78,53,30,30.43,30.26,8,1,8,0.00
2012-3-7,66,48,31,44,34,20,74,57,43,30.41,30.21,18,3,18,0.00
2012-3-8,66,59,53,53,49,43,89,72,55,30.21,29.91,20,4,20,0.06
2012-3-9,62,52,44,52,37,24,90,60,26,30.14,29.89,12,3,12,0.18
2012-3-10,67,46,34,30,23,19,62,42,23,30.30,30.13,12,2,13,0.00
2012-3-11,68,46,28,37,28,20,75,51,31,30.36,30.21,9,1,9,0.00
2012-3-12,70,54,38,52,40,27,86,61,43,30.22,30.05,14,3,14,0.03
2012-3-13,79,63,52,58,54,50,90,74,45,30.05,29.91,12,3,12,0.06
2012-3-14,84,65,50,56,50,46,88,63,35,30.07,29.97,8,1,8,0.00
2012-3-15,78,60,48,57,50,43,90,71,42,30.11,30.01,59,2,60,0.09
2012-3-16,78,61,48,60,52,45,90,75,50,30.05,29.91,10,1,10,0.03
2012-3-17,78,64,54,60,54,49,86,71,47,30.07,29.98,14,1,14,0.00
2012-3-18,79,62,53,61,55,50,90,80,55,30.15,30.00,10,1,10,0.03
2012-3-19,83,64,52,62,56,50,90,76,48,30.07,29.92,0,0,0,0.00
2012-3-20,87,66,53,63,56,50,90,73,38,30.07,29.92,0,0,0,0.00
2012-3-21,79,65,53,64,56,50,90,75,51,30.12,30.00,0,0,0,0.00
2012-3-22,81,66,56,62,57,52,90,75,51,30.09,29.95,0,0,0,0.00
2012-3-23,79,64,52,62,56,49,90,79,56,29.97,29.80,0,0,0,0.55
2012-3-24,64,60,59,61,57,56,90,90,89,29.80,29.71,0,0,0,2.36
2012-3-25,58,53,50,53,50,47,91,89,84,29.69,29.62,0,0,0,2.87
2012-3-26,75,63,53,52,46,28,83,57,36,29.93,29.66,0,0,0,0.00
2012-3-27,68,52,40,42,32,25,59,47,34,30.14,29.93,0,0,0,0.00
2012-3-28,84,61,41,60,45,34,80,58,33,30.04,29.69,0,0,0,0.00
2012-3-29,84,71,58,53,46,37,66,43,24,29.78,29.68,13,2,13,0.00
2012-3-30,80,62,52,53,45,36,69,55,36,29.89,29.69,10,3,10,0.00
2012-3-31,81,65,57,61,53,46,90,68,37,29.69,29.55,8,2,8,0.09
2012-4-1,71,60,48,56,50,44,88,71,50,29.73,29.56,14,2,14,0.00
2012-4-2,82,66,56,64,51,35,90,63,28,29.76,29.50,14,2,14,0.09
2012-4-3,80,61,49,62,50,35,89,67,44,29.85,29.63,16,2,16,0.49
2012-4-4,83,66,54,63,56,51,90,72,41,29.70,29.47,12,2,12,0.00
2012-4-5,64,55,46,56,50,42,90,83,54,29.66,29.51,12,1,12,0.83
2012-4-6,69,54,45,45,39,27,90,62,30,29.92,29.66,14,2,14,0.03
2012-4-7,73,52,35,41,32,25,76,49,25,30.07,29.92,9,1,9,0.00
2012-4-8,78,58,40,45,37,30,74,49,26,29.97,29.78,10,2,10,0.00
2012-4-9,74,60,44,36,32,27,60,37,21,29.89,29.69,17,3,17,0.00
2012-4-10,70,60,51,38,31,23,47,34,26,29.76,29.61,14,3,14,0.00
2012-4-11,56,48,38,28,24,-12,53,39,31,29.98,29.69,60,4,60,0.00
2012-4-12,67,48,32,35,28,21,70,48,28,30.05,29.90,12,1,13,0.00
2012-4-13,71,51,32,39,33,28,83,54,28,30.07,29.94,13,1,13,0.00
2012-4-14,75,56,39,47,40,32,83,57,36,30.12,29.97,13,2,13,0.00
2012-4-15,80,64,45,61,50,40,84,63,45,30.03,29.92,14,3,14,0.00
2012-4-16,84,70,58,62,58,54,88,67,46,29.99,29.87,12,2,12,0.00
2012-4-17,83,64,53,58,54,50,89,72,39,30.04,29.92,17,2,17,0.03
2012-4-18,54,52,49,51,48,46,90,88,84,30.05,29.91,15,3,15,0.28
2012-4-19,68,57,49,55,50,46,90,80,62,29.93,29.84,8,1,8,0.00
2012-4-20,75,60,51,58,53,48,90,78,55,29.86,29.67,6,1,6,0.00
2012-4-21,77,61,52,62,55,49,90,83,57,29.71,29.54,10,1,10,0.64
2012-4-22,57,52,44,52,47,35,90,84,71,29.60,29.37,9,2,9,0.18
2012-4-23,53,46,40,36,31,24,78,57,36,29.53,29.37,9,3,9,0.00
2012-4-24,65,50,38,37,29,21,63,44,29,29.64,29.50,13,2,13,0.00
2012-4-25,67,54,45,52,46,36,89,76,58,29.79,29.63,7,0,7,0.12
2012-4-26,76,61,50,64,55,47,90,82,62,29.74,29.59,8,0,8,0.34
2012-4-27,85,64,55,59,53,45,90,69,39,29.92,29.67,6,0,6,0.06
2012-4-28,58,54,49,48,44,39,86,68,54,30.02,29.91,8,1,8,0.00
2012-4-29,85,64,47,65,54,44,89,73,50,30.00,29.91,6,1,6,0.00
2012-4-30,79,68,62,68,63,59,90,84,69,30.05,29.89,6,0,6,0.86
2012-5-1,86,70,61,70,64,58,90,82,57,29.97,29.85,6,0,6,0.06
2012-5-2,89,72,60,71,65,57,91,78,50,29.97,29.87,5,0,6,0.00
2012-5-3,91,73,59,71,65,56,90,76,48,29.98,29.88,7,0,7,0.00
2012-5-4,95,73,62,69,62,58,89,71,40,29.92,29.76,6,0,6,0.00
2012-5-5,82,70,60,67,61,56,89,74,56,29.78,29.69,8,0,8,0.00
2012-5-6,83,70,60,66,61,56,88,75,54,29.87,29.76,5,0,5,0.00
2012-5-7,78,67,60,64,60,57,90,79,60,29.91,29.78,6,0,6,0.00
2012-5-8,76,66,62,67,62,57,90,86,72,29.82,29.66,8,1,8,0.37
2012-5-9,68,61,52,64,58,49,91,90,86,29.73,29.56,14,0,14,1.41
2012-5-10,75,58,46,54,47,41,91,70,39,29.83,29.59,4,0,5,0.00
2012-5-11,86,58,41,51,43,37,87,60,30,30.05,29.83,8,0,8,0.00
2012-5-12,77,60,44,58,50,41,88,71,49,30.16,30.04,7,1,7,0.00
2012-5-13,71,60,52,60,55,49,90,84,67,30.08,29.93,6,0,6,0.64
2012-5-14,74,62,58,68,59,55,91,90,80,29.93,29.70,9,0,9,3.55
2012-5-15,78,65,58,67,60,55,91,85,68,29.84,29.76,5,0,5,0.03
2012-5-16,88,68,56,67,60,54,91,77,50,29.82,29.72,5,0,6,0.00
2012-5-17,85,69,55,64,59,52,90,71,47,29.89,29.78,6,0,7,0.00
2012-5-18,87,68,60,64,57,52,87,70,44,29.97,29.89,8,1,8,0.00
2012-5-19,78,64,50,59,52,46,88,68,47,30.01,29.91,5,0,5,0.24
2012-5-20,88,67,50,60,53,47,89,66,34,29.99,29.88,0,0,0,0.00
2012-5-21,88,67,55,67,58,51,89,74,46,29.90,29.71,0,0,0,0.00
2012-5-22,87,68,57,67,61,54,90,80,50,29.75,29.63,0,0,0,0.18
2012-5-23,84,66,60,69,61,57,91,83,57,29.78,29.66,0,0,0,0.25
2012-5-24,85,69,60,71,63,57,91,82,57,29.89,29.77,0,0,0,0.21
2012-5-25,94,74,60,72,64,58,91,75,43,29.98,29.88,0,0,0,0.00
2012-5-26,93,74,60,73,65,57,90,75,48,30.01,29.92,3,0,4,0.00
2012-5-27,95,76,64,71,66,61,90,73,45,30.00,29.91,8,0,8,0.00
2012-5-28,98,76,66,73,66,62,89,74,42,29.94,29.82,5,0,6,0.00
2012-5-29,88,73,65,72,66,62,90,79,55,29.86,29.68,9,0,9,0.98
2012-5-30,93,73,64,68,61,54,91,70,35,29.71,29.61,10,0,10,0.03
2012-5-31,91,69,56,67,59,52,89,73,42,29.75,29.65,7,0,7,0.09
2012-6-1,80,66,57,68,61,53,91,84,62,29.71,29.53,10,1,10,0.46
2012-6-2,81,61,50,54,50,47,90,70,36,29.77,29.65,4,0,5,0.00
2012-6-3,93,64,47,66,53,43,89,70,41,29.80,29.66,8,0,8,0.00
2012-6-4,86,69,58,64,57,54,88,69,42,29.69,29.54,5,0,6,0.00
2012-6-5,80,66,58,60,56,52,84,70,49,29.74,29.57,6,0,6,0.00
2012-6-6,74,59,55,59,55,52,91,86,59,29.87,29.72,5,0,5,0.86
2012-6-7,88,66,53,63,56,50,91,74,42,29.90,29.83,4,0,5,0.00
2012-6-8,100,68,52,63,55,49,90,66,28,29.93,29.83,7,0,7,0.00
2012-6-9,92,71,55,66,59,51,88,69,40,29.94,29.84,5,1,5,0.00
2012-6-10,83,71,60,66,62,57,90,75,53,29.99,29.89,0,0,0,0.00
2012-6-11,82,70,65,72,66,61,90,87,72,29.98,29.82,0,0,0,1.01
2012-6-12,92,74,65,77,69,62,91,84,58,29.83,29.69,0,0,0,1.47
2012-6-13,89,73,62,68,62,57,91,72,38,29.88,29.77,0,0,0,0.00
2012-6-14,92,71,59,66,58,52,82,66,42,30.02,29.88,0,0,0,0.00
2012-6-15,89,70,61,64,60,58,90,72,45,30.08,30.00,0,0,0,0.00
2012-6-16,88,70,59,63,58,54,87,67,41,30.13,29.99,0,0,0,0.00
2012-6-17,86,69,56,66,59,52,89,73,51,30.03,29.86,0,0,0,0.00
2012-6-18,88,72,62,72,65,59,90,79,55,29.93,29.85,0,0,0,0.03
2012-6-19,101,75,61,76,66,58,91,76,44,30.01,29.93,0,0,0,0.03
2012-6-20,102,79,64,75,68,61,91,72,40,30.03,29.91,0,0,0,0.00
2012-6-21,98,79,65,73,68,62,90,71,40,29.92,29.76,0,0,0,0.00
2012-6-22,92,73,65,74,67,62,90,83,53,29.79,29.72,8,0,8,0.34
2012-6-23,98,77,66,71,66,63,91,73,40,29.87,29.75,6,0,6,0.03
2012-6-24,93,75,65,74,68,62,91,78,50,29.87,29.76,5,0,5,0.09
2012-6-25,98,77,66,73,66,58,91,72,38,29.79,29.57,4,0,4,0.00
2012-6-26,94,71,60,60,53,49,74,56,25,29.77,29.63,8,0,8,0.00
2012-6-27,100,71,53,62,54,48,86,59,27,29.86,29.75,8,0,8,0.00
2012-6-28,88,66,56,65,57,52,88,75,44,29.87,29.81,0,0,0,0.00
2012-6-29,108,93,77,77,72,62,75,51,36,29.77,29.64,16,0,16,0.00
2012-6-30,107,83,66,78,69,61,84,65,38,29.77,29.70,4,0,4,0.00
2012-7-1,100,84,70,78,71,61,89,67,42,29.89,29.74,10,0,10,0.00
2012-7-2,102,78,64,74,67,60,90,72,39,29.99,29.82,9,0,9,0.73
2012-7-3,93,77,68,75,69,65,90,79,51,29.88,29.79,5,0,5,0.00
2012-7-4,100,78,65,75,69,62,90,75,43,29.86,29.77,4,0,4,0.00
2012-7-5,93,75,68,79,69,64,90,81,53,29.87,29.77,25,0,25,0.67
2012-7-6,101,80,65,77,69,62,90,73,46,29.84,29.77,6,0,6,0.00
2012-7-7,101,82,70,77,72,67,90,72,41,29.88,29.78,4,0,5,0.00
2012-7-8,102,84,71,78,73,68,89,71,40,29.83,29.69,4,0,5,0.00
2012-7-9,97,78,68,73,69,66,90,76,44,29.84,29.72,7,0,6,0.55
2012-7-10,80,72,68,73,68,65,91,87,67,29.90,29.82,8,0,8,1.77
2012-7-11,80,69,63,71,65,60,91,87,69,30.00,29.88,9,0,9,1.25
2012-7-12,75,68,62,68,64,60,92,86,72,30.03,29.96,6,0,6,0.00
2012-7-13,85,72,67,73,67,63,91,86,65,30.04,29.97,3,0,4,1.65
2012-7-14,89,73,69,79,70,66,92,89,69,30.07,29.97,2,0,2,2.57
2012-7-15,94,74,68,81,70,65,92,87,63,30.05,29.92,14,0,14,1.47
2012-7-16,92,76,69,79,71,66,92,84,58,29.95,29.79,0,0,0,0.03
2012-7-17,99,80,68,77,71,65,91,76,47,29.85,29.76,0,0,0,0.00
2012-7-18,92,76,68,76,70,66,91,81,53,29.86,29.76,0,0,0,0.00
2012-7-19,88,76,67,76,69,64,91,82,62,29.87,29.78,0,0,0,0.03
2012-7-20,86,74,67,75,69,65,91,85,64,29.82,29.74,0,0,0,0.03
2012-7-21,93,77,68,77,70,65,91,82,58,29.92,29.79,0,0,0,0.15
2012-7-22,85,76,71,76,71,68,91,85,72,30.03,29.92,0,0,0,0.06
2012-7-23,89,76,68,78,71,66,91,85,61,30.04,29.88,0,0,0,0.95
2012-7-24,88,74,70,76,69,65,91,84,67,29.90,29.70,0,0,0,0.09
2012-7-25,90,75,67,78,70,64,91,85,67,29.84,29.74,0,0,0,0.24
2012-7-26,100,80,69,78,72,66,91,78,51,29.78,29.65,0,0,0,0.03
2012-7-27,94,80,71,76,72,68,91,78,54,29.81,29.70,0,0,0,0.00
2012-7-28,96,78,68,75,69,64,91,74,46,29.85,29.76,0,0,0,0.00
2012-7-29,88,76,66,74,66,62,90,72,48,29.88,29.79,0,0,0,0.00
2012-7-30,93,76,65,74,68,62,91,76,47,29.89,29.79,0,0,0,0.00
2012-7-31,87,75,66,71,68,63,91,80,55,29.86,29.75,0,0,0,0.00
2012-8-1,93,77,66,74,69,63,91,77,50,29.79,29.69,0,0,0,0.00
2012-8-2,96,76,62,72,67,59,90,74,46,29.79,29.71,0,0,0,0.00
2012-8-3,89,77,67,77,70,64,91,81,63,29.91,29.77,0,0,0,0.00
2012-8-4,85,76,69,77,70,66,91,82,66,30.04,29.90,0,0,0,0.06
2012-8-5,90,77,68,74,70,66,91,79,56,30.07,29.93,0,0,0,0.00
2012-8-6,88,75,69,75,70,66,91,86,63,29.98,29.87,0,0,0,0.06
2012-8-7,89,75,69,75,70,66,92,85,60,29.90,29.80,0,0,0,0.67
2012-8-8,91,75,67,75,69,64,92,81,55,29.86,29.79,0,0,0,0.00
2012-8-9,87,74,66,77,69,63,91,83,62,29.85,29.71,0,0,0,0.21
2012-8-10,84,72,63,72,67,60,92,85,65,29.73,29.64,0,0,0,0.92
2012-8-11,82,71,63,71,66,60,92,85,65,29.80,29.67,0,0,0,0.18
2012-8-12,88,71,61,67,62,59,91,75,47,29.88,29.79,0,0,0,0.00
2012-8-13,86,72,61,70,64,58,91,78,53,29.91,29.79,0,0,0,0.00
2012-8-14,92,74,65,72,66,62,91,78,52,29.82,29.70,0,0,0,0.12
2012-8-15,87,71,64,72,65,60,91,83,55,29.84,29.75,0,0,0,0.03
2012-8-16,88,70,58,67,61,55,91,75,45,29.91,29.79,0,0,0,0.00
2012-8-17,86,70,60,71,64,57,91,82,58,29.85,29.70,0,0,0,0.00
2012-8-18,84,72,64,67,64,61,91,78,53,29.79,29.69,0,0,0,0.00
2012-8-19,76,67,64,70,64,60,91,88,80,29.76,29.70,0,0,0,0.55
2012-8-20,81,68,62,69,63,59,92,83,58,29.84,29.71,0,0,0,0.15
2012-8-21,83,70,58,66,61,55,92,76,48,29.92,29.83,0,0,0,0.00
2012-8-22,81,70,62,70,64,59,91,81,66,29.98,29.89,0,0,0,0.00
2012-8-23,83,70,59,68,63,56,91,80,58,30.01,29.94,0,0,0,0.00
2012-8-24,84,70,60,70,62,57,91,77,49,30.01,29.94,0,0,0,0.00
2012-8-25,64,59,55,60,56,52,91,90,86,30.01,29.96,0,0,0,0.00
2012-9-1,88,78,72,75,72,69,91,80,66,29.95,29.90,0,0,0,0.00
2012-9-2,90,75,69,75,70,66,92,85,60,29.92,29.77,0,0,0,0.43
2012-9-3,83,72,69,76,69,66,92,90,76,29.88,29.78,6,0,6,1.16
2012-9-4,80,72,69,74,69,66,92,90,79,29.84,29.76,6,0,6,0.67
2012-9-5,83,74,69,75,70,66,92,89,77,29.79,29.70,1,0,1,0.12
2012-9-6,83,74,66,74,70,64,92,86,69,29.82,29.72,5,0,5,0.76
2012-9-7,85,73,64,76,67,61,92,83,63,29.84,29.70,4,0,5,0.00
2012-9-8,84,70,62,73,66,57,91,86,61,29.73,29.56,9,0,9,0.06
2012-9-9,75,64,56,58,54,51,88,71,48,29.87,29.71,4,0,5,0.00
2012-9-10,77,63,50,60,55,48,91,75,52,30.01,29.86,0,0,0,0.00
2012-9-11,77,63,50,60,54,47,90,76,56,30.15,30.01,2,0,2,0.00
2012-9-12,80,65,54,64,58,51,91,79,54,30.19,30.09,1,0,1,0.00
2012-9-13,79,63,51,60,56,49,91,78,48,30.20,30.08,2,0,2,0.00
2012-9-14,80,64,52,63,57,49,91,79,54,30.12,29.99,1,0,1,0.00
2012-9-15,83,67,56,66,61,53,91,81,54,30.04,29.93,3,0,4,0.03
2012-9-16,66,62,59,62,59,56,91,90,87,30.02,29.92,0,0,0,0.18
2012-9-17,66,63,60,63,60,58,91,91,90,29.95,29.71,0,0,0,1.16
2012-9-18,71,67,62,68,64,57,92,91,85,29.71,29.53,11,1,11,1.65
2012-9-19,70,62,54,57,54,51,90,78,58,29.97,29.71,8,0,8,0.00
2012-9-20,74,63,54,62,57,52,91,82,64,30.00,29.87,5,0,6,0.00
2012-9-21,78,64,52,65,58,49,91,81,59,29.93,29.81,7,0,7,0.00
2012-9-22,80,66,55,67,58,51,91,78,53,29.84,29.72,7,0,7,0.00
2012-9-23,72,60,49,54,47,39,87,66,36,29.99,29.84,5,0,5,0.00
2012-9-24,67,55,43,46,43,39,86,65,44,30.08,29.97,8,0,8,0.00
2012-9-25,73,56,41,60,50,38,90,80,61,30.07,29.98,0,0,0,0.00
2012-9-26,79,64,54,65,58,51,91,82,64,30.04,29.97,0,0,0,0.00
2012-9-27,80,66,52,65,59,50,91,79,53,30.04,29.92,0,0,0,0.00
2012-9-28,80,66,58,67,60,55,91,84,57,29.95,29.83,0,0,0,0.06
2012-9-29,66,62,59,63,60,56,92,91,90,29.86,29.73,0,0,0,1.44
2012-9-30,69,59,50,59,54,48,92,84,62,29.78,29.69,0,0,0,0.00
2012-10-1,58,57,56,55,54,54,91,91,91,29.76,29.67,0,0,0,0.31
2012-10-2,73,64,57,71,62,55,92,91,87,29.80,29.63,0,0,0,0.46
2012-10-3,77,67,61,68,62,59,92,86,69,30.02,29.79,0,0,0,0.00
2012-10-4,75,66,57,64,58,53,92,79,54,30.08,29.99,0,0,0,0.00
2012-10-5,78,62,50,60,55,47,91,78,53,30.05,29.85,0,0,0,0.00
2012-10-6,76,61,50,64,55,48,91,81,59,29.85,29.74,0,0,0,0.15
2012-10-7,55,51,43,51,47,40,91,86,76,29.98,29.80,0,0,0,0.70
2012-10-8,47,45,42,43,42,39,91,87,79,30.05,29.95,0,0,0,0.03
2012-10-9,62,51,43,52,46,41,91,85,68,30.00,29.89,0,0,0,0.00
2012-10-10,66,55,47,53,48,43,90,77,59,29.96,29.84,0,0,0,0.00
2012-10-11,66,52,40,47,42,35,85,69,50,30.11,29.96,0,0,0,0.00
2012-10-12,72,54,41,53,46,38,90,74,50,30.14,30.00,0,0,0,0.00
2012-10-13,64,51,41,47,42,36,85,70,53,30.29,30.13,0,0,0,0.00
2012-10-14,68,54,42,57,49,39,90,82,64,30.14,29.85,0,0,0,0.00
2012-10-15,71,61,53,63,52,42,91,76,44,29.85,29.58,8,0,8,0.95
2012-10-16,68,55,43,48,43,38,85,66,45,29.80,29.69,6,0,7,0.00
2012-10-17,69,53,40,52,45,37,90,75,49,29.83,29.71,8,0,8,0.00
2012-10-18,68,57,47,59,51,42,90,81,67,29.74,29.59,0,0,0,0.00
2012-10-19,68,56,46,52,45,38,91,70,41,29.61,29.52,0,0,0,0.00
2012-10-20,64,52,42,45,40,37,86,67,47,29.81,29.58,0,0,0,0.00
2012-10-21,65,50,36,47,40,33,89,73,49,29.97,29.80,0,0,0,0.00
2012-10-22,73,55,40,54,46,37,90,74,49,30.05,29.95,0,0,0,0.00
2012-10-23,78,60,44,58,50,42,90,73,43,30.01,29.90,0,0,0,0.00
2012-10-24,78,61,47,58,50,44,90,70,40,30.02,29.91,0,0,0,0.00
2012-10-25,76,60,46,58,51,43,90,75,51,30.00,29.91,0,0,0,0.00
2012-10-26,73,62,54,60,55,50,90,80,58,29.96,29.81,0,0,0,0.00
2012-10-27,68,62,57,59,55,49,88,79,67,29.82,29.59,0,0,0,0.00
2012-10-28,64,55,45,49,45,36,77,68,55,29.63,29.48,0,0,0,0.00
2012-10-29,46,44,41,36,31,28,70,61,55,29.53,29.25,11,1,12,0.00
2012-10-30,46,42,40,31,29,26,64,58,53,29.43,29.17,14,2,14,0.00
2012-10-31,50,44,38,36,32,30,73,64,52,29.59,29.42,9,1,9,0.00
2012-11-1,55,47,43,35,32,23,65,56,42,29.69,29.57,9,1,9,0.00
2012-11-2,60,49,41,38,29,23,59,47,33,29.80,29.65,12,0,13,0.00
2012-11-3,67,48,33,38,32,26,76,54,34,29.90,29.80,4,0,4,0.00
2012-11-4,59,50,43,42,38,32,76,64,48,29.87,29.78,0,0,0,0.00
2012-11-5,57,44,34,34,31,27,79,61,40,29.91,29.81,0,0,0,0.00
2012-11-6,42,37,29,30,28,25,84,70,61,29.94,29.77,0,0,0,0.00
2012-11-7,55,39,26,39,31,22,88,74,51,29.78,29.64,0,0,0,0.00
2012-11-8,60,47,36,34,29,25,74,51,28,29.97,29.76,8,0,8,0.00
2012-11-9,68,46,29,37,30,22,78,55,30,30.07,29.96,2,0,2,0.00
2012-11-10,72,50,32,41,33,26,81,56,29,30.17,30.05,4,0,4,0.00
2012-11-11,71,52,34,49,39,28,83,62,34,30.26,30.15,13,1,13,0.00
2012-11-12,68,60,54,59,54,49,90,84,68,30.19,29.96,10,0,10,0.37
2012-11-13,54,45,37,51,34,25,90,66,44,30.21,30.00,16,3,16,0.31
2012-11-14,48,38,30,30,27,24,81,65,51,30.29,30.15,13,2,13,0.00
2012-11-15,36,33,31,30,27,25,84,77,71,30.16,30.12,6,1,6,0.00
2012-11-16,58,46,26,36,31,22,88,57,38,30.20,30.06,6,0,6,0.00
2012-11-17,56,41,27,32,26,22,85,58,33,30.30,30.20,13,2,14,0.00
2012-11-18,56,47,40,41,35,25,72,62,52,30.28,30.18,15,4,15,0.00
2012-11-19,60,50,41,46,41,36,86,72,61,30.19,30.01,9,2,9,0.00
2012-11-20,63,45,34,46,38,32,90,78,50,30.01,29.86,6,0,6,0.00
2012-11-21,67,45,30,44,34,27,89,68,34,30.00,29.90,6,0,6,0.00
2012-11-22,68,45,28,39,31,23,85,61,32,30.07,29.96,5,0,6,0.00
2012-11-23,68,46,29,47,34,24,85,64,39,29.97,29.70,10,2,10,0.00
2012-11-24,47,38,28,30,22,17,64,52,36,29.92,29.76,11,3,11,0.00
2012-11-25,55,36,22,26,20,15,76,54,31,29.94,29.80,9,1,9,0.00
2012-11-26,66,44,26,35,26,19,74,51,29,30.00,29.86,6,0,6,0.00
2012-11-27,47,44,40,44,38,27,89,81,45,30.04,29.91,11,1,11,0.09
2012-11-28,56,41,31,34,28,22,85,62,33,30.15,30.02,7,1,7,0.00
2012-11-29,56,38,24,33,26,19,83,65,39,30.25,30.13,7,0,7,0.00
2012-11-30,63,40,26,41,30,22,87,69,40,30.18,30.06,4,0,5,0.00
2012-12-1,65,45,30,45,36,27,88,72,47,30.20,30.09,7,0,7,0.00
2012-12-2,69,50,34,51,42,30,89,75,52,30.16,30.02,13,2,13,0.00
2012-12-3,74,58,47,54,48,42,86,71,48,30.11,30.02,7,0,7,0.00
2012-12-4,72,55,40,52,46,37,90,72,44,30.12,29.96,12,2,12,0.00
2012-12-5,62,54,41,52,39,25,87,60,33,30.02,29.92,12,2,12,0.00
2012-12-6,49,40,30,35,31,23,79,69,56,30.13,30.01,8,1,8,0.00
2012-12-7,48,44,40,44,40,34,90,85,77,30.02,29.82,0,0,0,0.06
2012-12-8,66,51,46,54,47,43,90,85,64,29.86,29.77,5,0,5,0.00
2012-12-9,62,52,44,57,49,40,91,89,83,29.93,29.79,5,0,5,0.03
2012-12-10,61,57,54,58,54,51,91,90,84,29.79,29.48,11,2,12,0.09
2012-12-11,56,46,36,54,36,28,91,70,55,29.96,29.53,12,3,13,0.00
2012-12-12,45,40,34,32,29,26,77,67,58,30.13,29.96,15,2,15,0.00
2012-12-13,52,40,28,28,24,18,70,54,33,30.20,30.09,11,1,11,0.00
2012-12-14,61,37,22,34,24,16,81,62,35,30.15,30.02,4,0,5,0.00
2012-12-15,59,44,32,36,31,25,81,62,39,30.05,29.87,9,0,9,0.00
2012-12-16,48,45,41,45,41,33,90,86,59,29.87,29.72,4,0,4,0.67
2012-12-17,51,49,47,49,46,44,91,90,90,29.71,29.46,5,0,6,0.03
2012-12-18,55,48,42,48,37,29,92,68,45,29.69,29.46,13,3,13,0.03
2012-12-19,66,47,41,39,30,29,64,51,37,29.92,29.69,5,2,5,0.00
2012-12-20,45,40,37,38,34,29,90,80,64,29.95,29.34,11,3,11,0.89
2012-12-21,40,36,33,36,25,19,89,64,52,29.67,29.37,16,5,16,0.00
2012-12-22,54,38,30,20,17,12,62,44,23,29.91,29.66,20,6,21,0.00
2012-12-23,51,38,27,28,20,12,65,50,37,29.92,29.80,5,0,6,0.00
2012-12-24,41,39,36,38,34,26,90,84,57,29.81,29.68,5,0,6,1.13
2012-12-25,50,41,34,46,38,32,91,88,80,29.87,29.74,8,0,8,0.03
2012-12-26,43,37,35,40,34,28,91,88,74,29.84,29.30,15,3,15,2.20
2012-12-27,47,36,30,31,27,23,78,69,52,29.89,29.48,14,2,12,0.00
2012-12-28,41,33,25,31,26,21,87,77,65,29.96,29.77,8,0,8,0.00
2012-12-29,48,36,31,39,29,21,90,76,56,29.82,29.51,16,2,16,0.18
2012-12-30,50,35,26,23,18,16,65,52,34,30.16,29.82,14,3,15,0.00
2012-12-31,45,34,23,29,23,16,78,65,51,30.14,29.88,6,0,6,0.00
2013-1-1,45,41,37,42,35,26,90,80,61,29.88,29.73,5,0,6,0.31